Time;durP1;ratioP1;P1;durP2;ratioP2;P2;SDS_P1;SDS_P2;PMS_P1;PMS_P2;Temp;Humidity;BMP_temperature;BMP_pressure;BME280_temperature;BME280_humidity;BME280_pressure;Samples;Min_cycle;Max_cycle;Signal;HPM_P1;HPM_P2
2023/06/21 00:01:17;;;;;;;10.67;8.50;;;;;;;21.45;100.00;97936.81;5072576;28;20570;-76
2023/06/21 00:03:44;;;;;;;11.67;9.30;;;;;;;21.43;100.00;97936.31;5055990;28;20224;-76
2023/06/21 00:06:10;;;;;;;10.32;9.25;;;;;;;21.38;100.00;97936.38;5055841;28;20225;-76
2023/06/21 00:08:36;;;;;;;10.90;9.13;;;;;;;21.29;100.00;97919.97;5055516;28;20209;-76
2023/06/21 00:11:03;;;;;;;13.50;9.47;;;;;;;21.28;100.00;97918.38;5055797;28;20201;-76
2023/06/21 00:13:29;;;;;;;11.07;9.80;;;;;;;21.29;100.00;97911.88;5061568;28;20315;-76
2023/06/21 00:15:56;;;;;;;9.83;8.83;;;;;;;21.22;100.00;97919.53;5075619;28;20220;-76
2023/06/21 00:18:24;;;;;;;10.50;9.23;;;;;;;21.21;100.00;97914.41;5074584;28;20215;-76
2023/06/21 00:20:50;;;;;;;10.77;9.73;;;;;;;21.21;100.00;97911.72;5075663;28;20212;-76
2023/06/21 00:23:18;;;;;;;11.13;9.10;;;;;;;21.15;100.00;97908.25;5075203;28;20667;-76
2023/06/21 00:25:44;;;;;;;11.23;8.60;;;;;;;21.30;100.00;97910.75;5075503;28;20653;-76
2023/06/21 00:28:10;;;;;;;9.03;8.20;;;;;;;21.34;100.00;97911.78;5075543;28;20212;-76
2023/06/21 00:30:37;;;;;;;9.13;8.33;;;;;;;21.32;100.00;97910.47;5056409;28;20202;-76
2023/06/21 00:33:04;;;;;;;9.97;9.03;;;;;;;21.28;100.00;97914.84;5061537;28;20220;-76
2023/06/21 00:35:30;;;;;;;9.57;8.23;;;;;;;21.15;100.00;97920.97;5066103;28;20292;-76
2023/06/21 00:37:57;;;;;;;9.87;8.87;;;;;;;21.09;100.00;97922.13;5054802;28;20552;-76
2023/06/21 00:40:25;;;;;;;12.10;8.67;;;;;;;21.03;100.00;97936.81;5055249;28;20205;-76
2023/06/21 00:42:53;;;;;;;10.93;8.87;;;;;;;21.03;100.00;97934.13;5055086;28;20236;-76
2023/06/21 00:45:21;;;;;;;10.63;7.90;;;;;;;20.98;100.00;97928.75;5055125;28;20205;-76
2023/06/21 00:47:47;;;;;;;8.90;8.00;;;;;;;20.96;100.00;97928.22;5055104;28;20205;-76
2023/06/21 00:50:14;;;;;;;10.70;8.30;;;;;;;20.95;100.00;97926.63;5066930;28;20223;-76
2023/06/21 00:52:42;;;;;;;9.83;8.27;;;;;;;20.95;100.00;97932.03;5061648;28;20270;-76
2023/06/21 00:55:09;;;;;;;9.47;8.47;;;;;;;20.92;100.00;97936.13;5054814;28;20279;-76
2023/06/21 00:57:37;;;;;;;9.97;8.97;;;;;;;20.93;100.00;97932.31;5054817;28;20225;-76
2023/06/21 01:00:05;;;;;;;10.47;8.80;;;;;;;20.95;100.00;97932.03;5054875;28;20241;-76
2023/06/21 01:02:32;;;;;;;9.53;8.53;;;;;;;20.85;100.00;97940.22;5059982;28;20276;-76
2023/06/21 01:05:03;;;;;;;11.50;8.73;;;;;;;20.93;100.00;97942.34;5072343;28;20205;-76
2023/06/21 01:07:43;;;;;;;9.50;8.50;;;;;;;20.93;100.00;97945.84;5074433;28;20260;-76
2023/06/21 01:10:27;;;;;;;9.77;8.83;;;;;;;20.81;100.00;97945.41;5057430;28;20283;-76
2023/06/21 01:13:04;;;;;;;10.07;8.83;;;;;;;20.68;100.00;97943.38;5073064;28;20650;-76
2023/06/21 01:15:37;;;;;;;9.57;8.37;;;;;;;20.73;100.00;97954.13;5074548;28;20192;-76
2023/06/21 01:18:08;;;;;;;9.37;8.10;;;;;;;20.52;100.00;97946.53;5073307;28;20196;-76
2023/06/21 01:20:36;;;;;;;10.17;8.43;;;;;;;20.59;100.00;97955.91;5061687;28;20237;-76
2023/06/21 01:23:26;;;;;;;11.20;8.87;;;;;;;20.53;100.00;97956.25;5054346;28;20217;-76
2023/06/21 01:26:29;;;;;;;9.67;8.70;;;;;;;20.53;100.00;97950.84;5054333;28;20229;-76
2023/06/21 01:29:12;;;;;;;9.63;8.73;;;;;;;20.43;100.00;97959.03;5054238;28;20213;-76
2023/06/21 01:31:42;;;;;;;10.33;9.13;;;;;;;20.45;100.00;97959.53;5054460;28;20201;-76
2023/06/21 01:34:10;;;;;;;10.00;9.03;;;;;;;20.48;100.00;97962.47;5054191;28;20232;-76
2023/06/21 01:36:39;;;;;;;10.03;8.33;;;;;;;20.45;100.00;97959.53;5054102;28;20222;-76
2023/06/21 01:39:08;;;;;;;9.90;8.90;;;;;;;20.35;100.00;97965.03;5053824;28;20205;-76
2023/06/21 01:41:35;;;;;;;10.67;8.43;;;;;;;20.31;100.00;97959.41;5070491;28;20617;-76
2023/06/21 01:44:03;;;;;;;9.90;9.00;;;;;;;20.29;100.00;97966.16;5074072;28;20205;-76
2023/06/21 01:46:29;;;;;;;9.77;8.87;;;;;;;20.28;100.00;97970.75;5073907;28;20281;-76
2023/06/21 01:48:58;;;;;;;9.97;9.03;;;;;;;20.29;100.00;97971.56;5071259;28;20208;-77
2023/06/21 01:51:25;;;;;;;10.90;8.70;;;;;;;20.33;100.00;97978.00;5067719;28;20205;-76
2023/06/21 01:53:52;;;;;;;9.20;8.30;;;;;;;20.34;100.00;97979.63;5053442;28;20225;-76
2023/06/21 01:56:19;;;;;;;10.10;8.93;;;;;;;20.34;100.00;97985.81;5054068;28;20225;-76
2023/06/21 01:58:50;;;;;;;10.50;9.40;;;;;;;20.33;100.00;97991.50;5053823;28;20209;-76
2023/06/21 02:01:18;;;;;;;10.30;8.73;;;;;;;20.29;100.00;98002.06;5053761;28;20228;-76
2023/06/21 02:03:50;;;;;;;9.77;8.77;;;;;;;20.24;100.00;98002.13;5062550;28;20675;-76
2023/06/21 02:06:20;;;;;;;9.33;8.43;;;;;;;20.17;100.00;97998.13;5073033;28;20235;-76
2023/06/21 02:08:48;;;;;;;10.83;9.83;;;;;;;20.20;100.00;98003.75;5073729;28;20212;-76
2023/06/21 02:11:15;;;;;;;10.47;9.43;;;;;;;20.17;100.00;98003.53;5073394;28;20671;-76
2023/06/21 02:13:42;;;;;;;10.37;9.03;;;;;;;20.12;100.00;98003.56;5073384;28;20320;-76
2023/06/21 02:16:08;;;;;;;11.13;9.83;;;;;;;20.11;100.00;98013.53;5053795;28;20233;-76
2023/06/21 02:18:35;;;;;;;10.87;9.80;;;;;;;20.26;100.00;98018.03;5060822;28;20205;-76
2023/06/21 02:21:02;;;;;;;10.53;9.53;;;;;;;20.16;100.00;98018.91;5053514;28;20205;-76
2023/06/21 02:23:29;;;;;;;10.60;9.20;;;;;;;20.11;100.00;98021.63;5053921;28;20205;-76
2023/06/21 02:25:55;;;;;;;10.63;9.53;;;;;;;20.12;100.00;98022.47;5069908;28;20220;-76
2023/06/21 02:28:21;;;;;;;11.00;10.00;;;;;;;20.08;100.00;98018.66;5065515;28;20687;-76
2023/06/21 02:30:48;;;;;;;11.53;10.13;;;;;;;20.06;100.00;98013.53;5068932;28;20658;-76
2023/06/21 02:33:14;;;;;;;10.47;9.40;;;;;;;20.10;100.00;98009.22;5073410;28;20232;-76
2023/06/21 02:35:40;;;;;;;10.97;9.93;;;;;;;20.13;100.00;98010.56;5069643;28;20224;-76
2023/06/21 02:38:07;;;;;;;9.93;9.03;;;;;;;20.17;100.00;98017.03;5055319;28;20212;-76
2023/06/21 02:40:34;;;;;;;10.80;9.73;;;;;;;20.19;100.00;98021.03;5073378;28;20576;-76
2023/06/21 02:43:00;;;;;;;9.97;8.97;;;;;;;20.18;100.00;98015.94;5073357;28;20201;-76
2023/06/21 02:45:26;;;;;;;9.77;8.87;;;;;;;20.16;100.00;98010.00;5073262;28;20200;-76
2023/06/21 02:47:53;;;;;;;10.70;9.60;;;;;;;20.16;100.00;98010.00;5072173;28;20211;-76
2023/06/21 02:50:19;;;;;;;13.60;9.43;;;;;;;20.12;100.00;98007.03;5073206;28;20204;-76
2023/06/21 02:52:45;;;;;;;11.70;9.30;;;;;;;20.14;100.00;98017.56;5073172;28;20269;-76
2023/06/21 02:55:12;;;;;;;10.30;8.87;;;;;;;20.13;100.00;98015.97;5073208;28;20207;-76
2023/06/21 02:57:38;;;;;;;10.77;9.20;;;;;;;20.09;100.00;98020.31;5071801;28;20235;-76
2023/06/21 03:00:17;;;;;;;11.03;9.50;;;;;;;20.13;100.00;98021.38;5071625;28;20212;-76
2023/06/21 03:02:44;;;;;;;10.97;9.83;;;;;;;20.05;100.00;98030.00;5056785;28;20193;-76
2023/06/21 03:05:11;;;;;;;10.10;9.30;;;;;;;20.06;100.00;98029.75;5057388;28;20681;-76
2023/06/21 03:07:38;;;;;;;10.47;9.40;;;;;;;20.11;100.00;98031.66;5056407;28;20225;-76
2023/06/21 03:10:05;;;;;;;11.50;10.40;;;;;;;20.10;100.00;98043.50;5056977;28;20605;-76
2023/06/21 03:12:31;;;;;;;11.37;10.27;;;;;;;20.12;100.00;98052.94;5056443;28;20660;-76
2023/06/21 03:14:59;;;;;;;13.43;10.93;;;;;;;20.14;100.00;98041.88;5071569;28;20205;-76
2023/06/21 03:17:26;;;;;;;13.07;10.37;;;;;;;20.18;100.00;98051.03;5076415;28;20734;-76
2023/06/21 03:19:53;;;;;;;11.80;10.57;;;;;;;20.22;100.00;98054.78;5076704;28;20204;-76
2023/06/21 03:22:19;;;;;;;12.63;11.43;;;;;;;20.20;100.00;98073.13;5076628;28;20211;-76
2023/06/21 03:24:46;;;;;;;11.70;10.53;;;;;;;20.24;100.00;98072.31;5068625;28;20657;-76
2023/06/21 03:27:13;;;;;;;11.57;10.57;;;;;;;20.30;100.00;98081.97;5075061;28;20220;-75
2023/06/21 03:29:40;;;;;;;12.70;10.73;;;;;;;20.30;100.00;98081.97;5075838;28;20235;-75
2023/06/21 03:32:06;;;;;;;15.20;12.30;;;;;;;20.34;100.00;98079.53;5061025;28;20202;-75
2023/06/21 03:34:33;;;;;;;13.03;11.33;;;;;;;20.40;100.00;98089.22;5056083;28;20217;-75
2023/06/21 03:36:59;;;;;;;13.03;11.63;;;;;;;20.42;100.00;98087.03;5056627;28;20592;-75
2023/06/21 03:39:26;;;;;;;14.73;12.50;;;;;;;20.48;100.00;98089.41;5056665;28;20205;-75
2023/06/21 03:41:52;;;;;;;13.10;11.40;;;;;;;20.56;100.00;98117.72;5057037;28;20209;-75
2023/06/21 03:44:18;;;;;;;11.73;10.50;;;;;;;20.53;100.00;98161.50;5056427;28;20679;-75
2023/06/21 03:46:45;;;;;;;11.63;9.47;;;;;;;20.62;100.00;98208.47;5056723;28;20308;-75
2023/06/21 03:49:11;;;;;;;9.27;8.07;;;;;;;20.49;100.00;98230.69;5056387;28;20687;-75
2023/06/21 03:51:38;;;;;;;9.10;8.30;;;;;;;20.29;100.00;98209.97;5056210;28;20672;-75
2023/06/21 03:54:04;;;;;;;9.83;8.77;;;;;;;20.09;100.00;98249.75;5056415;28;20225;-75
2023/06/21 03:56:31;;;;;;;12.27;10.77;;;;;;;19.97;100.00;98233.00;5056522;28;20225;-74
2023/06/21 03:58:57;;;;;;;13.37;10.93;;;;;;;19.71;100.00;98201.78;5056213;28;20212;-75
2023/06/21 04:01:24;;;;;;;15.10;11.60;;;;;;;19.52;100.00;98196.16;5058256;28;20570;-75
2023/06/21 04:03:51;;;;;;;11.63;10.50;;;;;;;19.54;100.00;98175.13;5055825;28;20209;-74
2023/06/21 04:06:17;;;;;;;12.33;10.90;;;;;;;19.46;100.00;98173.78;5055500;28;20232;-74
2023/06/21 04:08:43;;;;;;;13.97;11.90;;;;;;;19.35;100.00;98174.88;5055891;28;20204;-74
2023/06/21 04:11:10;;;;;;;13.57;10.80;;;;;;;19.37;100.00;98166.53;5054995;28;20288;-74
2023/06/21 04:13:36;;;;;;;13.20;11.90;;;;;;;19.30;100.00;98163.28;5054918;28;20217;-74
2023/06/21 04:16:03;;;;;;;11.70;10.63;;;;;;;19.18;100.00;98168.94;5059186;28;20221;-74
2023/06/21 04:18:29;;;;;;;13.20;11.70;;;;;;;19.20;100.00;98155.19;5073040;28;20288;-74
2023/06/21 04:20:55;;;;;;;12.30;11.10;;;;;;;19.20;100.00;98150.63;5067311;28;20202;-74
2023/06/21 04:23:22;;;;;;;13.33;11.60;;;;;;;19.25;100.00;98144.44;5055453;28;20213;-74
2023/06/21 04:25:49;;;;;;;13.77;12.37;;;;;;;19.31;100.00;98146.84;5067049;28;20236;-75
2023/06/21 04:28:16;;;;;;;13.23;11.83;;;;;;;19.32;100.00;98151.16;5075464;28;20207;-75
2023/06/21 04:30:42;;;;;;;12.23;11.13;;;;;;;19.31;100.00;98146.84;5075678;28;20208;-74
2023/06/21 04:33:09;;;;;;;13.17;11.87;;;;;;;19.31;100.00;98152.22;5064559;28;20214;-74
2023/06/21 04:35:35;;;;;;;13.23;11.83;;;;;;;19.32;100.00;98161.94;5074328;28;20215;-74
2023/06/21 04:38:01;;;;;;;13.70;12.40;;;;;;;19.30;100.00;98153.31;5068510;28;20211;-74
2023/06/21 04:40:29;;;;;;;13.03;11.73;;;;;;;19.34;100.00;98154.41;5074110;28;20682;-74
2023/06/21 04:42:57;;;;;;;14.20;11.70;;;;;;;19.35;100.00;98153.31;5073109;28;20394;-74
2023/06/21 04:45:26;;;;;;;14.17;12.67;;;;;;;19.38;100.00;98157.34;5062726;28;20588;-75
2023/06/21 04:47:56;;;;;;;14.97;13.33;;;;;;;19.44;100.00;98157.06;5069430;28;20193;-74
2023/06/21 04:50:23;;;;;;;14.53;12.93;;;;;;;19.54;100.00;98157.03;5066044;28;20195;-74
2023/06/21 04:52:50;;;;;;;13.73;12.20;;;;;;;19.63;100.00;98168.88;5056156;28;20210;-74
2023/06/21 04:55:17;;;;;;;13.97;12.23;;;;;;;19.68;100.00;98174.25;5052481;28;20217;-75
2023/06/21 04:57:45;;;;;;;16.43;13.10;;;;;;;19.68;100.00;98176.97;5052458;28;20655;-74
2023/06/21 05:00:12;;;;;;;14.53;12.93;;;;;;;19.72;100.00;98179.13;5052806;28;20213;-74
2023/06/21 05:02:39;;;;;;;13.87;12.37;;;;;;;19.75;100.00;98189.38;5052689;28;20209;-74
2023/06/21 05:05:05;;;;;;;13.27;11.97;;;;;;;19.79;100.00;98177.75;5053019;28;20201;-74
2023/06/21 05:07:31;;;;;;;13.63;12.30;;;;;;;19.78;100.00;98182.31;5051636;28;20236;-74
2023/06/21 05:09:58;;;;;;;13.67;12.30;;;;;;;19.89;100.00;98193.09;5052801;28;20629;-74
2023/06/21 05:12:24;;;;;;;14.80;13.37;;;;;;;19.96;100.00;98182.81;5054119;28;20582;-74
2023/06/21 05:14:50;;;;;;;14.53;13.23;;;;;;;20.02;100.00;98187.91;5054008;28;20559;-74
2023/06/21 05:17:17;;;;;;;14.40;12.93;;;;;;;20.02;100.00;98193.31;5053853;28;20596;-75
2023/06/21 05:19:44;;;;;;;13.80;12.50;;;;;;;20.06;100.00;98190.84;5054401;28;20205;-74
2023/06/21 05:22:10;;;;;;;13.10;11.90;;;;;;;20.01;100.00;98194.41;5053553;28;20205;-74
2023/06/21 05:24:37;;;;;;;12.30;11.10;;;;;;;19.94;100.00;98185.78;5053734;28;20695;-74
2023/06/21 05:27:05;;;;;;;11.80;10.47;;;;;;;19.98;100.00;98186.06;5053883;28;20235;-74
2023/06/21 05:29:31;;;;;;;12.07;10.87;;;;;;;20.00;100.00;98178.47;5054175;28;20212;-74
2023/06/21 05:31:57;;;;;;;12.90;10.17;;;;;;;19.94;100.00;98185.00;5053755;28;20569;-74
2023/06/21 05:34:26;;;;;;;11.03;10.03;;;;;;;19.99;100.00;98193.84;5053749;28;20696;-74
2023/06/21 05:36:52;;;;;;;11.70;10.67;;;;;;;20.04;100.00;98191.16;5053156;28;20709;-74
2023/06/21 05:39:18;;;;;;;11.47;10.33;;;;;;;20.15;100.00;98192.75;5053249;28;20239;-74
2023/06/21 05:41:45;;;;;;;10.37;9.20;;;;;;;20.19;100.00;98195.69;5053372;28;20223;-74
2023/06/21 05:44:11;;;;;;;12.00;10.80;;;;;;;20.25;100.00;98200.00;5053451;28;20336;-74
2023/06/21 05:46:37;;;;;;;11.30;10.20;;;;;;;20.27;100.00;98200.53;5053521;28;20229;-74
2023/06/21 05:49:04;;;;;;;10.97;9.90;;;;;;;20.37;100.00;98192.38;5053376;28;20216;-74
2023/06/21 05:51:31;;;;;;;12.87;10.70;;;;;;;20.29;100.00;98199.16;5053744;28;20209;-74
2023/06/21 05:53:58;;;;;;;12.80;10.37;;;;;;;20.31;100.00;98188.09;5053542;28;20581;-74
2023/06/21 05:56:26;;;;;;;12.40;10.57;;;;;;;20.39;100.00;98182.13;5053707;28;20221;-75
2023/06/21 05:58:53;;;;;;;12.07;10.83;;;;;;;20.47;100.00;98182.34;5053169;28;20201;-75
2023/06/21 06:01:20;;;;;;;13.87;10.90;;;;;;;20.51;100.00;98180.69;5053478;28;20205;-75
2023/06/21 06:03:46;;;;;;;11.57;10.57;;;;;;;20.59;100.00;98188.22;5052977;28;20201;-75
2023/06/21 06:06:16;;;;;;;11.87;10.57;;;;;;;20.56;100.00;98169.84;5053060;28;20229;-76
2023/06/21 06:08:42;;;;;;;13.13;10.60;;;;;;;20.64;100.00;98171.97;5053314;28;20213;-75
2023/06/21 06:11:09;;;;;;;12.37;11.00;;;;;;;20.70;100.00;98178.94;5053329;28;20205;-75
2023/06/21 06:13:35;;;;;;;16.40;11.07;;;;;;;20.80;100.00;98183.47;5053593;28;20213;-75
2023/06/21 06:16:02;;;;;;;12.63;11.33;;;;;;;20.84;100.00;98181.84;5053093;28;20231;-75
2023/06/21 06:18:29;;;;;;;13.97;10.93;;;;;;;20.84;100.00;98187.25;5052925;28;20209;-76
2023/06/21 06:20:55;;;;;;;14.20;11.63;;;;;;;20.91;100.00;98191.25;5052843;28;20220;-75
2023/06/21 06:23:21;;;;;;;14.17;10.80;;;;;;;20.88;100.00;98194.50;5052684;28;20217;-73
2023/06/21 06:25:48;;;;;;;13.20;10.00;;;;;;;20.96;100.00;98182.31;5053539;28;20235;-73
2023/06/21 06:28:14;;;;;;;11.53;10.33;;;;;;;21.07;100.00;98191.97;5053108;28;20368;-73
2023/06/21 06:30:40;;;;;;;11.68;10.40;;;;;;;20.97;100.00;98183.91;5052887;28;20212;-73
2023/06/21 06:33:07;;;;;;;11.87;10.40;;;;;;;21.11;100.00;98184.91;5052478;28;20672;-73
2023/06/21 06:35:33;;;;;;;12.73;10.57;;;;;;;21.20;100.00;98177.78;5056046;28;20681;-73
2023/06/21 06:37:59;;;;;;;12.48;9.88;;;;;;;21.19;100.00;98181.56;5057161;28;20224;-73
2023/06/21 06:40:26;;;;;;;12.07;10.32;;;;;;;21.24;100.00;98192.34;5057195;28;20212;-73
2023/06/21 06:42:52;;;;;;;11.60;9.37;;;;;;;21.31;100.00;98190.13;5056998;28;20668;-73
2023/06/21 06:45:18;;;;;;;11.90;9.10;;;;;;;21.41;100.00;98193.56;5057795;28;20197;-74
2023/06/21 06:47:45;;;;;;;10.15;8.98;;;;;;;21.59;100.00;98200.13;5057029;28;20239;-73
2023/06/21 06:50:11;;;;;;;9.30;8.40;;;;;;;21.68;100.00;98203.81;5056965;28;20203;-73
2023/06/21 06:52:38;;;;;;;7.97;7.28;;;;;;;21.58;100.00;98206.66;5057493;28;20266;-73
2023/06/21 06:55:05;;;;;;;10.60;8.27;;;;;;;21.76;100.00;98208.66;5056906;28;20235;-73
2023/06/21 06:57:31;;;;;;;10.02;7.85;;;;;;;21.92;100.00;98201.97;5056928;28;20243;-73
2023/06/21 06:59:57;;;;;;;9.82;8.07;;;;;;;22.13;100.00;98203.34;5057183;28;20205;-73
2023/06/21 07:02:24;;;;;;;8.93;8.05;;;;;;;22.28;100.00;98208.56;5056341;28;20211;-73
2023/06/21 07:04:50;;;;;;;8.77;7.97;;;;;;;22.41;100.00;98210.59;5056615;28;20208;-73
2023/06/21 07:07:16;;;;;;;8.85;7.38;;;;;;;22.47;100.00;98207.53;5056698;28;20237;-73
2023/06/21 07:09:43;;;;;;;8.88;6.80;;;;;;;22.38;100.00;98214.69;5056421;28;20213;-73
2023/06/21 07:12:10;;;;;;;7.90;6.57;;;;;;;22.36;100.00;98221.50;5056666;28;20629;-73
2023/06/21 07:14:36;;;;;;;7.20;6.25;;;;;;;22.51;100.00;98214.00;5057536;28;20221;-73
2023/06/21 07:17:03;;;;;;;7.30;6.63;;;;;;;22.69;100.00;98206.97;5056252;28;20235;-73
2023/06/21 07:19:29;;;;;;;7.25;6.53;;;;;;;22.76;100.00;98210.13;5056454;28;20209;-73
2023/06/21 07:21:55;;;;;;;6.93;6.28;;;;;;;22.96;100.00;98201.69;5056582;28;20209;-73
2023/06/21 07:24:22;;;;;;;7.10;5.72;;;;;;;23.17;100.00;98184.00;5056222;28;20216;-73
2023/06/21 07:26:48;;;;;;;6.72;5.32;;;;;;;23.22;100.00;98187.47;5056594;28;20229;-73
2023/06/21 07:29:14;;;;;;;5.45;4.95;;;;;;;23.34;100.00;98204.06;5056574;28;20220;-73
2023/06/21 07:31:41;;;;;;;5.57;5.07;;;;;;;23.52;100.00;98205.16;5056109;28;20205;-73
2023/06/21 07:34:08;;;;;;;5.10;4.57;;;;;;;23.52;97.79;98205.16;5056279;28;20225;-73
2023/06/21 07:36:35;;;;;;;5.85;4.43;;;;;;;23.37;100.00;98195.34;5056268;28;20237;-74
2023/06/21 07:39:01;;;;;;;5.35;4.82;;;;;;;23.14;100.00;98201.69;5056047;28;20211;-73
2023/06/21 07:41:27;;;;;;;7.40;5.35;;;;;;;22.99;100.00;98201.94;5055626;28;20299;-73
2023/06/21 07:43:54;;;;;;;6.35;5.53;;;;;;;22.90;100.00;98213.72;5055589;28;20683;-73
2023/06/21 07:46:20;;;;;;;8.70;6.50;;;;;;;23.00;100.00;98208.94;5054469;28;20607;-73
2023/06/21 07:48:46;;;;;;;7.53;6.40;;;;;;;22.96;100.00;98204.41;5055460;28;20668;-73
2023/06/21 07:51:13;;;;;;;6.72;6.18;;;;;;;22.95;100.00;98200.09;5055273;28;20202;-73
2023/06/21 07:53:39;;;;;;;9.63;6.10;;;;;;;22.95;100.00;98214.47;5055688;28;20201;-73
2023/06/21 07:56:05;;;;;;;7.55;5.47;;;;;;;22.79;100.00;98221.19;5055482;28;20229;-73
2023/06/21 07:58:32;;;;;;;7.28;5.80;;;;;;;22.88;100.00;98210.50;5055096;28;20205;-73
2023/06/21 08:00:58;;;;;;;7.00;5.50;;;;;;;23.06;100.00;98209.69;5055468;28;20212;-73
2023/06/21 08:03:25;;;;;;;7.03;5.20;;;;;;;23.05;100.00;98208.88;5055421;28;20668;-73
2023/06/21 08:05:51;;;;;;;6.30;5.07;;;;;;;23.25;100.00;98221.34;5055333;28;20225;-73
2023/06/21 08:08:20;;;;;;;7.00;4.97;;;;;;;23.43;100.00;98215.06;5055486;28;20205;-73
2023/06/21 08:10:46;;;;;;;5.30;4.80;;;;;;;23.33;100.00;98223.38;5055260;28;20278;-73
2023/06/21 08:13:17;;;;;;;5.55;5.05;;;;;;;23.30;100.00;98223.97;5055019;28;20213;-73
2023/06/21 08:15:43;;;;;;;7.38;5.30;;;;;;;23.21;100.00;98232.00;5054951;28;20257;-73
2023/06/21 08:18:09;;;;;;;6.18;5.25;;;;;;;23.11;100.00;98242.16;5055247;28;20216;-73
2023/06/21 08:20:36;;;;;;;6.72;5.07;;;;;;;23.03;100.00;98250.94;5055024;28;20216;-73
2023/06/21 08:23:03;;;;;;;6.15;5.15;;;;;;;23.01;100.00;98247.75;5054811;28;20209;-73
2023/06/21 08:25:29;;;;;;;8.52;5.60;;;;;;;23.02;100.00;98246.63;5054921;28;20182;-73
2023/06/21 08:27:56;;;;;;;7.13;5.25;;;;;;;22.93;100.00;98253.81;5054742;28;20209;-73
2023/06/21 08:30:22;;;;;;;5.85;5.15;;;;;;;22.85;100.00;98254.47;5054781;28;20219;-73
2023/06/21 08:32:49;;;;;;;6.88;5.28;;;;;;;22.87;100.00;98268.53;5055399;28;20241;-73
2023/06/21 08:35:15;;;;;;;8.10;5.28;;;;;;;22.88;100.00;98270.94;5054704;28;20225;-73
2023/06/21 08:37:41;;;;;;;7.13;5.35;;;;;;;22.87;100.00;98274.75;5054583;28;20221;-73
2023/06/21 08:40:08;;;;;;;7.78;5.38;;;;;;;22.86;100.00;98275.06;5054809;28;20205;-73
2023/06/21 08:42:35;;;;;;;6.90;4.82;;;;;;;22.87;100.00;98277.47;5055332;28;20201;-73
2023/06/21 08:45:01;;;;;;;5.90;3.92;;;;;;;22.85;100.00;98271.56;5054767;28;20208;-73
2023/06/21 08:47:28;;;;;;;4.72;3.55;;;;;;;22.91;100.00;98278.50;5054726;28;20229;-73
2023/06/21 08:49:58;;;;;;;4.97;3.88;;;;;;;22.90;96.43;98281.50;5054894;28;20255;-73
2023/06/21 08:52:26;;;;;;;3.70;3.03;;;;;;;22.84;100.00;98290.81;5054926;28;20205;-73
2023/06/21 08:55:06;;;;;;;3.40;3.10;;;;;;;22.79;98.26;98293.59;5054601;28;20225;-73
2023/06/21 08:57:40;;;;;;;7.90;4.22;;;;;;;22.76;98.80;98297.69;5054473;28;20224;-73
2023/06/21 09:00:08;;;;;;;4.78;3.33;;;;;;;22.74;97.33;98307.22;5054610;28;20319;-73
2023/06/21 09:03:00;;;;;;;6.78;3.92;;;;;;;22.65;100.00;98303.53;5054371;28;20208;-73
2023/06/21 09:05:36;;;;;;;4.35;3.63;;;;;;;22.52;100.00;98309.66;5053099;28;20200;-73
2023/06/21 09:08:03;;;;;;;4.25;3.50;;;;;;;22.44;100.00;98304.84;5054662;28;20331;-73
2023/06/21 09:10:29;;;;;;;6.13;3.70;;;;;;;22.23;100.00;98304.25;5054353;28;20216;-73
2023/06/21 09:12:57;;;;;;;4.68;4.10;;;;;;;22.12;100.00;98296.53;5053765;28;20215;-73
2023/06/21 09:15:25;;;;;;;4.60;4.07;;;;;;;22.00;100.00;98294.22;5053934;28;20271;-73
2023/06/21 09:17:52;;;;;;;6.85;3.92;;;;;;;21.80;100.00;98291.69;5054113;28;20259;-73
2023/06/21 09:20:18;;;;;;;5.72;4.20;;;;;;;21.64;100.00;98279.38;5054102;28;20299;-73
2023/06/21 09:22:46;;;;;;;4.68;4.28;;;;;;;21.43;100.00;98271.72;5053874;28;20209;-73
2023/06/21 09:25:13;;;;;;;7.88;4.35;;;;;;;21.49;100.00;98240.81;5054556;28;20220;-73
2023/06/21 09:27:40;;;;;;;8.57;4.80;;;;;;;21.45;100.00;98220.84;5053819;28;20233;-73
2023/06/21 09:30:07;;;;;;;6.93;4.72;;;;;;;21.22;100.00;98244.03;5053722;28;20209;-73
2023/06/21 09:32:33;;;;;;;5.57;4.82;;;;;;;21.10;100.00;98257.09;5053794;28;20209;-73
2023/06/21 09:35:00;;;;;;;7.37;5.70;;;;;;;20.84;100.00;98271.81;5053803;28;20346;-73
2023/06/21 09:37:37;;;;;;;6.57;5.20;;;;;;;20.83;100.00;98272.91;5053730;28;20272;-73
2023/06/21 09:40:04;;;;;;;8.47;6.07;;;;;;;20.69;100.00;98280.00;5054034;28;20211;-72
2023/06/21 09:42:31;;;;;;;10.60;6.00;;;;;;;20.62;100.00;98265.19;5053276;28;20664;-72
2023/06/21 09:44:57;;;;;;;10.07;6.13;;;;;;;20.40;100.00;98230.47;5053975;28;20296;-72
2023/06/21 09:47:29;;;;;;;8.67;5.93;;;;;;;20.38;100.00;98199.38;5053836;28;20252;-72
2023/06/21 09:49:56;;;;;;;9.07;6.33;;;;;;;20.34;100.00;98196.44;5053755;28;20628;-72
2023/06/21 09:52:23;;;;;;;8.43;5.80;;;;;;;20.29;100.00;98219.94;5053931;28;20209;-72
2023/06/21 09:54:50;;;;;;;7.73;6.33;;;;;;;20.24;100.00;98223.50;5053852;28;20229;-72
2023/06/21 09:57:16;;;;;;;8.60;5.83;;;;;;;20.20;100.00;98235.09;5053384;28;20233;-72
2023/06/21 09:59:49;;;;;;;11.73;6.83;;;;;;;20.15;100.00;98237.81;5053721;28;20205;-72
2023/06/21 10:02:15;;;;;;;10.10;6.10;;;;;;;20.18;100.00;98240.00;5053409;28;20193;-72
2023/06/21 10:04:43;;;;;;;9.43;6.77;;;;;;;20.17;100.00;98244.56;5053681;28;20201;-73
2023/06/21 10:07:14;;;;;;;9.53;6.33;;;;;;;20.09;100.00;98265.94;5053697;28;20225;-72
2023/06/21 10:09:40;;;;;;;8.50;6.47;;;;;;;20.11;100.00;98293.47;5052837;28;20189;-72
2023/06/21 10:12:10;;;;;;;8.80;6.70;;;;;;;20.13;100.00;98312.91;5053688;28;20205;-72
2023/06/21 10:14:36;;;;;;;10.33;7.00;;;;;;;20.09;100.00;98319.91;5053522;28;20209;-72
2023/06/21 10:17:03;;;;;;;10.67;6.43;;;;;;;20.17;100.00;98322.06;5053000;28;20236;-72
2023/06/21 10:19:30;;;;;;;10.77;7.20;;;;;;;20.09;100.00;98318.03;5053412;28;20205;-72
2023/06/21 10:21:59;;;;;;;12.07;8.03;;;;;;;20.07;100.00;98313.97;5053493;28;20213;-72
2023/06/21 10:24:36;;;;;;;8.60;7.13;;;;;;;20.06;100.00;98325.81;5053246;28;20247;-72
2023/06/21 10:27:08;;;;;;;10.47;7.53;;;;;;;20.11;100.00;98336.66;5053195;28;20225;-72
2023/06/21 10:29:35;;;;;;;14.40;7.97;;;;;;;20.08;100.00;98334.47;5053086;28;20571;-72
2023/06/21 10:32:03;;;;;;;9.00;7.40;;;;;;;20.11;100.00;98333.97;5053071;28;20694;-72
2023/06/21 10:34:55;;;;;;;10.67;7.90;;;;;;;20.08;100.00;98329.06;5053097;28;20208;-72
2023/06/21 10:37:30;;;;;;;12.63;8.43;;;;;;;20.16;100.00;98339.34;5051794;28;20286;-73
2023/06/21 10:40:00;;;;;;;9.93;7.80;;;;;;;20.24;100.00;98353.09;5053325;28;20204;-73
2023/06/21 10:42:28;;;;;;;8.83;7.93;;;;;;;20.27;100.00;98346.34;5052754;28;20565;-73
2023/06/21 10:44:57;;;;;;;9.77;7.53;;;;;;;20.42;100.00;98338.19;5052898;28;20205;-73
2023/06/21 10:47:24;;;;;;;9.73;7.80;;;;;;;20.50;100.00;98345.72;5035503;28;20308;-73
2023/06/21 10:49:52;;;;;;;11.10;7.40;;;;;;;20.56;100.00;98345.44;5052955;28;20201;-72
2023/06/21 10:52:19;;;;;;;7.83;6.90;;;;;;;20.57;100.00;98351.66;5052796;28;20212;-72
2023/06/21 10:54:47;;;;;;;10.43;7.30;;;;;;;20.68;100.00;98345.13;5052430;28;20691;-72
2023/06/21 10:57:15;;;;;;;9.43;7.00;;;;;;;20.80;100.00;98351.03;5052843;28;20225;-72
2023/06/21 10:59:43;;;;;;;7.43;6.83;;;;;;;20.96;100.00;98358.00;5052570;28;20688;-72
2023/06/21 11:02:09;;;;;;;8.27;7.43;;;;;;;21.06;100.00;98355.22;5052566;28;20205;-72
2023/06/21 11:05:13;;;;;;;9.47;8.20;;;;;;;21.21;100.00;98349.75;5052918;28;20201;-73
2023/06/21 11:07:49;;;;;;;11.00;8.50;;;;;;;21.40;100.00;98345.31;5052967;28;20229;-72
2023/06/21 11:10:15;;;;;;;9.53;7.80;;;;;;;21.47;100.00;98351.22;5051315;28;20656;-72
2023/06/21 11:12:42;;;;;;;8.40;7.60;;;;;;;21.51;100.00;98357.66;5052381;28;20570;-72
2023/06/21 11:15:09;;;;;;;9.07;8.20;;;;;;;21.63;100.00;98358.13;5051130;28;20225;-72
2023/06/21 11:17:36;;;;;;;10.00;8.15;;;;;;;21.71;100.00;98357.56;5052820;28;20229;-72
2023/06/21 11:20:24;;;;;;;10.00;8.38;;;;;;;21.76;100.00;98360.22;5052573;28;20672;-73
2023/06/21 11:23:08;;;;;;;11.18;8.25;;;;;;;21.67;100.00;98362.69;5056483;28;20205;-73